LiveATC.Net - Listen to live air traffic control over the Internet! Contact LiveATC.net for advertising information

Find LiveATC Audio Streams


Airport/ARTCC Code

Frequency
(e.g., 124.400, 128.75)
Site-wide search

Browse LiveATC Feeds
LiveATC Coverage Map
Top 50 LiveATC Feeds
Bad Weather Areas

LiveATC FAQ
Offer a LiveATC Feed
Contact LiveATC.net
Press Inquiries

LiveATC on iPhone
LiveATC on Android

LiveATC Mobile
(Mobile browser)

ATC Audio Archives
Interesting Recordings

LiveATC Forums

Home Page
About LiveATC.net
Make a Donation
LiveATC Bookstore

Terms of Use
Privacy Policy

ATC/Radar Sites
U.S. ARTCC Freqs
Canadian Air Freqs

AIRMETs/SIGMETs

FAA Airport Status
Nat'l Airspace Status
Arrival Demand Charts


Server Software By:
Icecast.org
Liquidsoap


Current Potentially Bad Weather Airports
(updated every 30 minutes - sorted alphabetically by ICAO code)



This page lists LiveATC.net airport areas that may be interesting to listen to because of challenging flying (weather) conditions. Challenging weather conditions include low ceilings, limited visibility, high or gusty winds, or thunderstorms. This is an evolving new feature and comments are welcome.

Updated: Mon Sep 22 00:10:01 UTC 2014
Click on airport name to go to that airport area's feeds.

EFKU Tower/Approach
WX MAP UNAVAILABLEEFKU 212350Z AUTO 34007KT 9999 -SHRA BKN006 OVC039CB 11/10 Q1004 RESHRA
ENSO AFIS
WX MAP UNAVAILABLEENSO 211820Z 35022G32KT 9999 SCT055 11/05 Q1017
ESSL Twr/App/Control
WX MAP UNAVAILABLEESSL 212350Z AUTO 35012KT 310V020 9999NDV FEW007/// OVC009/// 09/08 Q1001 REDZ RERA
KAPA Gnd/Twr/Denver App
kapaKAPA 212353Z 01007KT 10SM SCT070 BKN110 BKN220 19/10 A3030 RMK AO2 SLP210 OCNL LTGICCG DSNT W CB DSNT W MOV NE VIRGA SW-NW T01940100 10239 20178 51002
KAUG CTAF/App/ZBW02
kaugKAUG 212353Z AUTO 14005KT 1/4SM FG VV002 18/18 A2968 RMK AO2 SLP051 T01830183 10206 20183 58022
KBGR Del/Gnd/Twr
kbgrKBGR 212353Z 13008KT 1/2SM R15/3500VP6000FT FG OVC002 18/18 A2971 RMK AO2 DZE51 SLP057 P0000 60001 T01830178 10222 20183 58016
KBKL Gnd/Twr/App
kbklKBKL 212353Z 32024G32KT 10SM SCT020 BKN040 OVC065 16/12 A2978 RMK AO2 PK WND 32034/2342 RAB03E42 SLP082 P0002 60002 T01610122 10211 20161 53029
MA/NH/RI/CT Area CTAF
ksfzKSFZ 212355Z 00000KT 5SM OVC005 21/18 A2962 RMK AO1 60003 10230 20210 402400140 57024
KBVY Ground/Tower
kbvyKBVY 212353Z 13006KT 1/4SM FG VV002 19/18 A2962 RMK AO2 SLP025 T01890178 10244 20189 56022 $
KDUA CTAF/Unicom
kduaKDUA 212355Z AUTO 00000KT 10SM SCT065 BKN070 BKN100 28/21 A3005 RMK AO2 LTG DSNT W AND NW
E80 CTAF
ke80KE80 212355Z AUTO 17010KT 10SM SCT110 24/12 A3023 RMK AO2 LTG DSNT NW T02420121 10274 20242
KFLL Ground/Tower
kfllKFLL 212353Z 02013G19KT 7SM TS FEW006 BKN018CB BKN045 23/21 A3001 RMK AO2 TSB11 SLP161 FRQ LTGICCG NW-NE TS NW-NE MOV SE VIS LWR NW-NE T02330211 10294 20233 53017
KGYI Ground/Tower
kgyiKGYI 212355Z AUTO 00000KT 10SM SCT085 30/18 A3005 RMK AO2 LTG DSNT N AND NW T03040177 10328 20304
KHSV Del/Gnd/Twr/App 1
khsvKHSV 212353Z 00000KT 10SM BKN050 BKN095 BKN250 28/19 A2995 RMK AO2 SLP133 OCNL LTGIC DSNT E AND W CB DSNT E AND W T02830189 10333 20283 53005 $
KHWO Twr/CTAF/App
khwoKHWO 212353Z 00000KT 10SM VCTS FEW026 BKN070 BKN110 28/23 A3002 RMK AO2 LTG DSNT N AND NE TSB35E50 SLP165 T02830228 10317 20283 53017
KIPT Gnd/Twr/ZNY
kiptKIPT 212354Z 35005KT 10SM TSRA SCT047 SCT080 BKN100 19/17 A2963 RMK AO2 LTG DSNT NE SLP030 P0038 60039 T01890167 10261 20183 53007
KLWM Ground/Tower
klwmKLWM 212354Z 13003KT 7SM OVC003 21/19 A2964 RMK AO2 SLP037 T02060194 10267 20206 56021
KMIA Approach
kmiaKMIA 212353Z 00000KT 10SM FEW035 FEW050 SCT140 BKN250 27/24 A3001 RMK AO2 RAB2259E36 SLP162 FRQ LTGIC DSNT N-NE CB DSNT NW-NE P0002 60002 T02670239 10311 20267 53014
KOPF ATIS
kopfKOPF 212353Z 13006KT 10SM FEW048 28/23 A3001 RMK AO2 LTG DSNT N AND NE SLP163 T02780233 10317 20278 53015
KPBI Del/Gnd/Twr/App/ZMA
kpbiKPBI 212353Z 18004KT 10SM -RA SCT015 BKN075 OVC110 24/23 A3001 RMK AO2 RAB23 TSE23 SLP161 OCNL LTGICCC DSNT SE CB DSNT SE P0003 60059 T02390233 10317 20239 51022 $
KPWM Gnd/Twr/App
kpwmKPWM 212351Z 09006KT 1/4SM FG VV002 17/17 A2966 RMK AO2 SLP043 T01720172 10211 20172 56025
KTMB Del/Gnd/Twr
ktmbKTMB 212353Z 00000KT 10SM CLR 27/23 A3000 RMK AO2 LTG DSNT N SLP158 60000 T02720233 10322 20267 53011
KUUU CTAF/Clearance
kuuuKUUU 212353Z AUTO 00000KT 1 1/2SM BR OVC001 20/19 A2961 RMK AO2 SLP023 T02000194 10233 20200 56028
LHDC Info/Tower
WX MAP UNAVAILABLELHDC 211415Z 25011KT 9999 BKN026CB 23/17 Q1009 TEMPO 7000 SHRA TSRA SCT020CB BKN030
SAZS Tower/Approach
WX MAP UNAVAILABLESAZS 212300Z 32020G30KT 9000 VCSH SCT025 FEW050 05/01 Q1013
URSS Gnd/Twr/App
WX MAP UNAVAILABLEURSS 212330Z 05002MPS 9999 OVC023CB 17/15 Q1013 NOSIG RMK R06/06002MPS MT OBSC QFE758 02290050 06290050